createdAt,value
2018-05-10T00:00:58.000Z,16.55
2018-05-10T00:02:01.272Z,18.35
2018-05-10T00:03:03.744Z,17.12
2018-05-10T00:04:06.236Z,17.70
2018-05-10T00:05:09.804Z,17.80
2018-05-10T00:06:13.493Z,17.85
2018-05-10T00:07:16.752Z,17.08
2018-05-10T00:08:19.224Z,16.15
2018-05-10T00:09:21.988Z,16.45
2018-05-10T00:10:24.842Z,16.10
2018-05-10T00:11:27.625Z,15.82
2018-05-10T00:12:30.111Z,15.63
2018-05-10T00:13:32.592Z,16.00
2018-05-10T00:14:35.076Z,15.30
2018-05-10T00:15:39.876Z,15.27
2018-05-10T00:16:43.128Z,15.23
2018-05-10T00:17:45.595Z,15.05
2018-05-10T00:18:48.072Z,14.73
2018-05-10T00:19:50.560Z,14.18
2018-05-10T00:20:54.036Z,13.32
2018-05-10T00:21:57.287Z,13.20
2018-05-10T00:22:59.760Z,13.15
2018-05-10T00:24:02.228Z,14.48
2018-05-10T00:25:04.967Z,13.40
2018-05-10T00:26:08.973Z,12.77
2018-05-10T00:27:11.475Z,12.52
2018-05-10T00:28:13.948Z,12.27
2018-05-10T00:29:16.424Z,12.75
2018-05-10T00:30:19.239Z,13.20
2018-05-10T00:31:22.387Z,12.32
2018-05-10T00:32:25.636Z,11.98
2018-05-10T00:33:28.108Z,12.70
2018-05-10T00:34:30.575Z,12.40
2018-05-10T00:35:34.018Z,13.35
2018-05-10T00:36:36.528Z,12.77
2018-05-10T00:37:39.001Z,12.37
2018-05-10T00:38:41.472Z,12.70
2018-05-10T00:39:44.709Z,13.27
2018-05-10T00:40:47.515Z,13.55
2018-05-10T00:41:50.776Z,12.05
2018-05-10T00:42:53.252Z,13.15
2018-05-10T00:43:55.720Z,13.38
2018-05-10T00:44:58.200Z,13.40
2018-05-10T00:46:02.406Z,13.25
2018-05-10T00:47:05.668Z,12.43
2018-05-10T00:48:08.140Z,14.20
2018-05-10T00:49:10.611Z,13.95
2018-05-10T00:50:13.432Z,13.55
2018-05-10T00:51:16.715Z,13.48
2018-05-10T00:52:19.216Z,13.52
2018-05-10T00:53:21.688Z,14.40
2018-05-10T00:54:36.176Z,15.05
2018-05-10T00:55:39.725Z,14.82
2018-05-10T00:56:42.991Z,15.80
2018-05-10T00:57:45.463Z,15.93
2018-05-10T00:58:47.936Z,17.55
2018-05-10T00:59:50.412Z,17.23
2018-05-10T01:00:53.745Z,18.92
2018-05-10T01:01:56.264Z,18.00
2018-05-10T01:02:59.504Z,18.50
2018-05-10T01:04:01.986Z,18.35
2018-05-10T01:05:05.647Z,18.40
2018-05-10T01:06:08.466Z,19.70
2018-05-10T01:07:11.745Z,20.65
2018-05-10T01:08:14.220Z,20.27
2018-05-10T01:09:16.687Z,21.23
2018-05-10T01:10:20.155Z,21.10
2018-05-10T01:11:23.606Z,21.10
2018-05-10T01:12:26.139Z,20.95
2018-05-10T01:13:29.375Z,22.62
2018-05-10T01:14:31.855Z,21.75
2018-05-10T01:15:34.637Z,22.02
2018-05-10T01:16:37.893Z,22.40
2018-05-10T01:17:40.380Z,22.17
2018-05-10T01:18:42.855Z,22.98
2018-05-10T01:19:45.327Z,22.23
2018-05-10T01:20:49.620Z,23.15
2018-05-10T01:21:52.874Z,23.52
2018-05-10T01:22:55.360Z,23.45
2018-05-10T01:23:57.828Z,24.10
2018-05-10T01:25:00.309Z,23.38
2018-05-10T01:26:03.021Z,23.67
2018-05-10T01:27:05.528Z,24.33
2018-05-10T01:28:08.025Z,24.42
2018-05-10T01:29:11.320Z,24.02
2018-05-10T01:30:14.869Z,22.90
2018-05-10T01:31:18.413Z,24.20
2018-05-10T01:32:20.928Z,25.20
2018-05-10T01:33:23.416Z,24.92
2018-05-10T01:34:26.652Z,23.50
2018-05-10T01:35:41.270Z,25.62
2018-05-10T01:36:43.775Z,23.73
2018-05-10T01:37:46.244Z,23.27
2018-05-10T01:38:48.732Z,24.42
2018-05-10T01:39:51.972Z,23.83
2018-05-10T01:40:54.618Z,24.67
2018-05-10T01:41:57.112Z,24.30
2018-05-10T01:42:59.584Z,25.70
2018-05-10T01:44:02.080Z,24.92
2018-05-10T01:45:04.833Z,24.48
2018-05-10T01:46:08.380Z,25.08
2018-05-10T01:47:10.870Z,25.15
2018-05-10T01:48:13.340Z,25.08
2018-05-10T01:49:15.828Z,25.90
2018-05-10T01:50:19.985Z,23.75
2018-05-10T01:51:22.651Z,24.67
2018-05-10T01:52:25.152Z,25.85
2018-05-10T01:53:27.623Z,23.95
2018-05-10T01:54:30.116Z,23.80
2018-05-10T01:55:33.624Z,24.37
2018-05-10T01:56:36.121Z,22.55
2018-05-10T01:57:38.593Z,21.02
2018-05-10T01:58:41.059Z,21.70
2018-05-10T01:59:43.548Z,22.48
2018-05-10T02:00:46.957Z,22.25
2018-05-10T02:01:49.448Z,23.02
2018-05-10T02:02:51.916Z,22.65
2018-05-10T02:03:54.383Z,21.15
2018-05-10T02:04:57.112Z,22.27
2018-05-10T02:06:00.655Z,22.65
2018-05-10T02:07:03.144Z,22.87
2018-05-10T02:08:05.616Z,22.58
2018-05-10T02:09:08.847Z,20.10
2018-05-10T02:10:11.604Z,20.62
2018-05-10T02:11:14.376Z,21.58
2018-05-10T02:12:16.867Z,21.70
2018-05-10T02:13:19.340Z,19.58
2018-05-10T02:14:21.811Z,20.67
2018-05-10T02:15:24.745Z,21.15
2018-05-10T02:16:28.144Z,22.00
2018-05-10T02:17:30.611Z,21.52
2018-05-10T02:18:33.079Z,20.85
2018-05-10T02:19:35.547Z,20.17
2018-05-10T02:20:38.296Z,19.87
2018-05-10T02:21:40.796Z,21.40
2018-05-10T02:22:43.264Z,20.23
2018-05-10T02:23:45.732Z,20.60
2018-05-10T02:24:48.204Z,20.05
2018-05-10T02:25:50.923Z,20.35
2018-05-10T02:26:53.428Z,19.73
2018-05-10T02:27:55.896Z,20.45
2018-05-10T02:28:58.368Z,20.73
2018-05-10T02:30:00.836Z,20.52
2018-05-10T02:31:03.561Z,20.80
2018-05-10T02:32:06.052Z,19.20
2018-05-10T02:33:08.520Z,20.70
2018-05-10T02:34:10.992Z,19.08
2018-05-10T02:35:13.817Z,20.27
2018-05-10T02:36:17.411Z,19.15
2018-05-10T02:37:19.909Z,19.70
2018-05-10T02:38:22.380Z,17.65
2018-05-10T02:39:24.848Z,20.05
2018-05-10T02:40:27.675Z,18.25
2018-05-10T02:41:30.203Z,18.52
2018-05-10T02:42:32.672Z,19.80
2018-05-10T02:43:35.910Z,19.30
2018-05-10T02:44:38.384Z,19.20
2018-05-10T02:45:41.053Z,18.98
2018-05-10T02:46:43.626Z,19.60
2018-05-10T02:47:46.092Z,18.52
2018-05-10T02:48:48.561Z,19.62
2018-05-10T02:49:51.032Z,20.42
2018-05-10T02:50:53.751Z,18.23
2018-05-10T02:51:56.263Z,19.70
2018-05-10T02:52:58.735Z,18.60
2018-05-10T02:54:01.204Z,17.83
2018-05-10T02:55:04.016Z,18.67
2018-05-10T02:56:06.830Z,17.83
2018-05-10T02:57:09.336Z,18.45
2018-05-10T02:58:12.572Z,19.62
2018-05-10T02:59:15.040Z,20.02
2018-05-10T03:00:17.780Z,18.48
2018-05-10T03:01:20.547Z,18.55
2018-05-10T03:02:23.064Z,20.15
2018-05-10T03:03:25.532Z,18.48
2018-05-10T03:04:28.004Z,20.83
2018-05-10T03:05:31.471Z,19.05
2018-05-10T03:06:33.961Z,17.92
2018-05-10T03:07:37.212Z,18.30
2018-05-10T03:08:39.679Z,18.73
2018-05-10T03:09:42.147Z,19.27
2018-05-10T03:10:44.973Z,17.30
2018-05-10T03:11:47.480Z,18.42
2018-05-10T03:12:49.968Z,18.08
2018-05-10T03:13:53.207Z,18.92
2018-05-10T03:14:55.676Z,19.27
2018-05-10T03:15:58.469Z,19.25
2018-05-10T03:17:01.722Z,20.55
2018-05-10T03:18:04.252Z,18.77
2018-05-10T03:19:07.488Z,19.60
2018-05-10T03:20:10.140Z,19.23
2018-05-10T03:21:12.994Z,18.62
2018-05-10T03:22:15.480Z,18.92
2018-05-10T03:23:17.968Z,19.10
2018-05-10T03:24:20.440Z,19.23
2018-05-10T03:25:23.306Z,19.12
2018-05-10T03:26:26.034Z,18.77
2018-05-10T03:27:28.535Z,22.37
2018-05-10T03:28:31.019Z,20.10
2018-05-10T03:29:34.291Z,19.40
2018-05-10T03:30:37.064Z,20.85
2018-05-10T03:31:40.320Z,19.10
2018-05-10T03:32:42.792Z,19.02
2018-05-10T03:33:45.287Z,21.08
2018-05-10T03:34:47.755Z,20.52
2018-05-10T03:35:51.178Z,19.87
2018-05-10T03:36:53.668Z,20.00
2018-05-10T03:37:56.141Z,20.65
2018-05-10T03:38:58.627Z,21.30
2018-05-10T03:40:02.799Z,19.58
2018-05-10T03:41:05.590Z,20.60
2018-05-10T03:42:08.072Z,20.25
2018-05-10T03:43:10.542Z,18.90
2018-05-10T03:44:13.803Z,19.90
2018-05-10T03:45:16.466Z,22.17
2018-05-10T03:46:19.965Z,21.52
2018-05-10T03:47:23.248Z,21.48
2018-05-10T03:48:25.722Z,21.50
2018-05-10T03:49:28.268Z,19.83
2018-05-10T03:50:30.901Z,21.02
2018-05-10T03:51:33.404Z,22.25
2018-05-10T03:52:35.872Z,21.83
2018-05-10T03:53:38.342Z,21.10
2018-05-10T03:54:40.827Z,21.52
2018-05-10T03:55:44.348Z,21.60
2018-05-10T03:56:46.848Z,23.87
2018-05-10T03:57:49.319Z,22.52
2018-05-10T03:58:51.787Z,20.40
2018-05-10T03:59:54.280Z,21.20
2018-05-10T04:00:57.733Z,21.52
2018-05-10T04:02:00.224Z,21.83
2018-05-10T04:05:01.340Z,20.50
2018-05-10T04:06:16.263Z,21.05
2018-05-10T04:07:31.422Z,18.62
2018-05-10T04:08:45.960Z,20.30
2018-05-10T04:10:00.451Z,20.62
2018-05-10T04:11:12.300Z,20.90
2018-05-10T04:12:14.805Z,19.60
2018-05-10T04:13:17.271Z,20.45
2018-05-10T04:14:19.744Z,19.70
2018-05-10T04:15:23.474Z,20.83
2018-05-10T04:16:26.197Z,19.80
2018-05-10T04:17:29.448Z,18.98
2018-05-10T04:18:31.920Z,18.80
2018-05-10T04:19:34.440Z,19.75
2018-05-10T04:20:37.274Z,19.37
2018-05-10T04:21:39.764Z,18.65
2018-05-10T04:22:42.232Z,18.35
2018-05-10T04:23:44.715Z,20.20
2018-05-10T04:24:47.951Z,17.90
2018-05-10T04:25:50.793Z,16.70
2018-05-10T04:26:53.283Z,17.73
2018-05-10T04:27:55.833Z,17.83
2018-05-10T04:28:58.239Z,17.12
2018-05-10T04:30:00.708Z,18.40
2018-05-10T04:31:03.412Z,17.35
2018-05-10T04:32:05.904Z,16.50
2018-05-10T04:33:08.376Z,17.17
2018-05-10T04:34:10.848Z,16.08
2018-05-10T04:35:13.734Z,17.77
2018-05-10T04:36:16.664Z,16.75
2018-05-10T04:37:19.165Z,16.45
2018-05-10T04:38:21.631Z,16.25
2018-05-10T04:39:24.105Z,15.93
2018-05-10T04:40:26.828Z,15.57
2018-05-10T04:41:29.415Z,14.18
2018-05-10T04:42:31.888Z,15.23
2018-05-10T04:43:34.360Z,14.98
2018-05-10T04:44:36.831Z,15.10
2018-05-10T04:45:39.660Z,14.90
2018-05-10T04:46:42.185Z,14.25
2018-05-10T04:47:45.424Z,14.02
2018-05-10T04:48:47.895Z,14.50
2018-05-10T04:49:50.375Z,13.93
2018-05-10T04:50:53.008Z,13.93
2018-05-10T04:51:55.524Z,12.98
2018-05-10T04:52:57.991Z,13.10
2018-05-10T04:54:01.230Z,13.38
2018-05-10T04:55:03.971Z,14.35
2018-05-10T04:56:07.627Z,11.70
2018-05-10T04:57:10.136Z,12.60
2018-05-10T04:58:12.605Z,11.77
2018-05-10T04:59:15.072Z,12.25
2018-05-10T05:00:17.846Z,11.85
2018-05-10T05:01:20.720Z,10.70
2018-05-10T05:02:23.235Z,12.02
2018-05-10T05:03:25.722Z,11.63
2018-05-10T05:04:28.183Z,10.45
2018-05-10T05:05:30.890Z,10.35
2018-05-10T05:06:33.385Z,9.90
2018-05-10T05:07:35.878Z,10.93
2018-05-10T05:08:38.356Z,10.40
2018-05-10T05:09:41.597Z,11.20
2018-05-10T05:10:44.250Z,10.63
2018-05-10T05:11:46.763Z,10.30
2018-05-10T05:12:50.020Z,11.25
2018-05-10T05:13:52.488Z,10.30
2018-05-10T05:14:54.959Z,10.13
2018-05-10T05:15:57.677Z,11.45
2018-05-10T05:17:00.175Z,10.35
2018-05-10T05:18:02.668Z,12.07
2018-05-10T05:19:05.144Z,10.23
2018-05-10T05:20:08.556Z,12.60
2018-05-10T05:21:11.664Z,13.45
2018-05-10T05:22:14.159Z,11.80
2018-05-10T05:23:16.654Z,12.07
2018-05-10T05:24:19.890Z,13.57
2018-05-10T05:25:22.516Z,12.07
2018-05-10T05:26:25.289Z,13.30
2018-05-10T05:27:27.800Z,12.90
2018-05-10T05:28:30.283Z,12.05
2018-05-10T05:29:33.568Z,12.00
2018-05-10T05:30:37.093Z,12.65
2018-05-10T05:31:39.588Z,13.70
2018-05-10T05:32:42.071Z,13.18
2018-05-10T05:33:44.556Z,13.62
2018-05-10T05:34:47.049Z,13.75
2018-05-10T05:35:50.443Z,13.62
2018-05-10T05:36:52.937Z,14.30
2018-05-10T05:37:55.407Z,13.23
2018-05-10T05:38:57.905Z,13.93
2018-05-10T05:40:01.139Z,13.75
2018-05-10T05:41:03.960Z,12.93
2018-05-10T05:42:07.200Z,13.32
2018-05-10T05:43:09.673Z,15.00
2018-05-10T05:44:12.164Z,14.23
2018-05-10T05:45:15.786Z,14.13
2018-05-10T05:46:18.596Z,14.10
2018-05-10T05:47:21.087Z,14.10
2018-05-10T05:48:24.335Z,14.60
2018-05-10T05:49:26.828Z,14.65
2018-05-10T05:50:29.559Z,15.18
2018-05-10T05:51:32.043Z,14.82
2018-05-10T05:52:34.512Z,16.80
2018-05-10T05:53:36.984Z,16.75
2018-05-10T05:54:39.552Z,17.02
2018-05-10T05:55:43.041Z,18.52
2018-05-10T05:56:46.296Z,17.58
2018-05-10T05:57:48.775Z,17.77
2018-05-10T05:58:51.243Z,19.02
2018-05-10T05:59:53.733Z,19.33
2018-05-10T06:00:57.359Z,18.30
2018-05-10T06:01:59.786Z,19.12
2018-05-10T06:03:03.025Z,19.60
2018-05-10T06:04:05.491Z,17.83
2018-05-10T06:05:08.285Z,21.30
2018-05-10T06:06:11.830Z,20.92
2018-05-10T06:07:14.333Z,20.83
2018-05-10T06:08:16.799Z,20.50
2018-05-10T06:09:19.271Z,20.73
2018-05-10T06:10:22.044Z,21.25
2018-05-10T06:11:25.584Z,20.85
2018-05-10T06:12:28.076Z,20.58
2018-05-10T06:13:30.548Z,21.55
2018-05-10T06:14:33.020Z,21.60
2018-05-10T06:15:35.806Z,18.65
2018-05-10T06:16:38.321Z,21.67
2018-05-10T06:17:40.791Z,21.90
2018-05-10T06:18:43.265Z,20.40
2018-05-10T06:19:45.731Z,20.48
2018-05-10T06:20:48.905Z,20.20
2018-05-10T06:21:51.391Z,20.58
2018-05-10T06:22:53.859Z,20.35
2018-05-10T06:23:56.337Z,20.10
2018-05-10T06:24:58.833Z,19.02
2018-05-10T06:26:01.517Z,20.98
2018-05-10T06:27:04.016Z,20.35
2018-05-10T06:28:06.487Z,20.55
2018-05-10T06:29:08.954Z,20.08
2018-05-10T06:30:12.501Z,19.27
2018-05-10T06:31:15.608Z,16.92
2018-05-10T06:32:18.100Z,16.87
2018-05-10T06:33:20.569Z,19.50
2018-05-10T06:34:24.549Z,19.30
2018-05-10T06:35:27.279Z,17.27
2018-05-10T06:36:29.852Z,19.92
2018-05-10T06:37:32.324Z,17.75
2018-05-10T06:38:34.795Z,17.08
2018-05-10T06:39:37.301Z,19.25
2018-05-10T06:40:41.474Z,17.92
2018-05-10T06:41:43.980Z,17.45
2018-05-10T06:42:47.215Z,18.48
2018-05-10T06:43:49.684Z,18.08
2018-05-10T06:44:52.161Z,17.00
2018-05-10T06:45:54.993Z,16.10
2018-05-10T06:46:57.575Z,14.85
2018-05-10T06:48:00.784Z,15.07
2018-05-10T06:49:03.259Z,15.32
2018-05-10T06:50:05.903Z,15.00
2018-05-10T06:51:09.476Z,13.85
2018-05-10T06:52:12.008Z,14.23
2018-05-10T06:53:15.240Z,15.23
2018-05-10T06:54:17.712Z,14.10
2018-05-10T06:55:20.448Z,15.60
2018-05-10T06:56:23.008Z,13.82
2018-05-10T06:57:25.515Z,15.40
2018-05-10T06:58:27.983Z,14.80
2018-05-10T06:59:30.456Z,14.18
2018-05-10T07:00:33.197Z,18.40
2018-05-10T07:01:35.684Z,17.48
2018-05-10T07:02:38.264Z,16.58
2018-05-10T07:03:40.736Z,16.40
2018-05-10T07:04:43.971Z,15.40
2018-05-10T07:05:46.773Z,16.10
2018-05-10T07:06:50.039Z,15.88
2018-05-10T07:07:52.532Z,14.32
2018-05-10T07:08:55.008Z,15.98
2018-05-10T07:09:57.736Z,16.92
2018-05-10T07:11:01.044Z,16.33
2018-05-10T07:12:04.296Z,16.05
2018-05-10T07:13:06.868Z,15.93
2018-05-10T07:14:09.339Z,17.10
2018-05-10T07:15:12.084Z,15.65
2018-05-10T07:16:15.364Z,16.85
2018-05-10T07:17:17.871Z,16.40
2018-05-10T07:18:20.355Z,15.45
2018-05-10T07:19:23.596Z,14.38
2018-05-10T07:20:26.348Z,15.63
2018-05-10T07:21:28.863Z,13.88
2018-05-10T07:22:31.340Z,14.73
2018-05-10T07:23:34.595Z,14.52
2018-05-10T07:24:37.064Z,14.87
2018-05-10T07:25:39.795Z,14.82
2018-05-10T07:26:42.296Z,15.23
2018-05-10T07:27:44.773Z,15.77
2018-05-10T07:28:47.320Z,14.45
2018-05-10T07:29:49.791Z,15.75
2018-05-10T07:30:52.540Z,17.23
2018-05-10T07:31:55.028Z,15.75
2018-05-10T07:32:57.561Z,15.77
2018-05-10T07:34:00.001Z,16.58
2018-05-10T07:35:03.253Z,16.75
2018-05-10T07:36:06.792Z,17.80
2018-05-10T07:37:09.304Z,17.08
2018-05-10T07:38:11.776Z,18.05
2018-05-10T07:39:14.267Z,18.20
2018-05-10T07:40:17.775Z,19.33
2018-05-10T07:41:20.695Z,19.92
2018-05-10T07:42:23.967Z,20.33
2018-05-10T07:43:26.436Z,21.98
2018-05-10T07:44:28.935Z,20.23
2018-05-10T07:45:32.358Z,22.08
2018-05-10T07:46:34.848Z,22.48
2018-05-10T07:47:37.316Z,21.50
2018-05-10T07:48:39.784Z,22.87
2018-05-10T07:49:42.271Z,22.45
2018-05-10T07:50:45.814Z,26.65
2018-05-10T07:51:48.304Z,25.40
2018-05-10T07:52:50.776Z,23.20
2018-05-10T07:53:53.248Z,24.17
2018-05-10T07:54:56.503Z,25.45
2018-05-10T07:55:59.245Z,24.85
2018-05-10T07:57:01.747Z,24.45
2018-05-10T07:58:04.218Z,22.70
2018-05-10T07:59:06.696Z,22.02
2018-05-10T08:00:11.866Z,22.77
2018-05-10T08:01:14.739Z,24.58
2018-05-10T08:02:17.315Z,23.90
2018-05-10T08:03:21.239Z,22.65
2018-05-10T08:04:23.712Z,25.30
2018-05-10T08:05:26.541Z,23.87
2018-05-10T08:06:29.108Z,25.00
2018-05-10T08:07:31.572Z,24.98
2018-05-10T08:08:34.044Z,25.85
2018-05-10T08:09:36.511Z,25.75
2018-05-10T08:10:39.319Z,23.73
2018-05-10T08:11:42.578Z,23.50
2018-05-10T08:12:45.048Z,24.95
2018-05-10T08:13:47.520Z,20.15
2018-05-10T08:14:49.992Z,20.17
2018-05-10T08:15:53.232Z,21.85
2018-05-10T08:16:55.765Z,20.52
2018-05-10T08:17:58.203Z,19.45
2018-05-10T08:19:00.680Z,16.95
2018-05-10T08:20:03.294Z,15.75
2018-05-10T08:21:06.038Z,15.18
2018-05-10T08:22:08.535Z,14.70
2018-05-10T08:23:11.009Z,12.63
2018-05-10T08:24:13.489Z,11.63
2018-05-10T08:25:16.331Z,12.27
2018-05-10T08:26:19.141Z,11.43
2018-05-10T08:27:21.683Z,11.48
2018-05-10T08:28:24.152Z,11.48
2018-05-10T08:29:30.660Z,11.05
2018-05-10T08:30:34.074Z,9.35
2018-05-10T08:31:36.575Z,9.57
2018-05-10T08:32:39.054Z,9.80
2018-05-10T08:33:41.523Z,10.10
2018-05-10T08:34:43.996Z,9.68
2018-05-10T08:35:48.281Z,9.20
2018-05-10T08:36:50.877Z,9.13
2018-05-10T08:37:54.023Z,8.45
2018-05-10T08:38:56.492Z,7.93
2018-05-10T08:39:58.956Z,7.65
2018-05-10T08:41:01.693Z,6.28
2018-05-10T08:42:04.224Z,6.03
2018-05-10T08:43:07.466Z,5.72
2018-05-10T08:44:09.932Z,6.15
2018-05-10T08:45:12.674Z,6.15
2018-05-10T08:46:15.547Z,6.53
2018-05-10T08:47:18.092Z,7.25
2018-05-10T08:48:21.321Z,6.12
2018-05-10T08:49:23.788Z,6.30
2018-05-10T08:50:26.530Z,5.97
2018-05-10T08:51:29.332Z,4.90
2018-05-10T08:52:31.808Z,4.20
2018-05-10T08:53:34.268Z,3.90
2018-05-10T08:54:36.732Z,4.22
2018-05-10T08:55:39.467Z,3.47
2018-05-10T08:56:41.955Z,3.28
2018-05-10T08:57:44.456Z,4.93
2018-05-10T08:58:47.688Z,3.17
2018-05-10T08:59:50.226Z,3.65
2018-05-10T09:00:52.985Z,2.60
2018-05-10T09:01:56.227Z,3.15
2018-05-10T09:02:58.736Z,2.50
2018-05-10T09:04:01.968Z,2.85
2018-05-10T09:05:04.614Z,2.62
2018-05-10T09:06:07.385Z,2.08
2018-05-10T09:07:09.885Z,2.42
2018-05-10T09:08:12.368Z,2.58
2018-05-10T09:09:14.828Z,2.33
2018-05-10T09:10:17.598Z,2.42
2018-05-10T09:11:21.037Z,2.30
2018-05-10T09:12:23.530Z,2.70
2018-05-10T09:13:26.008Z,2.53
2018-05-10T09:14:28.476Z,2.53
2018-05-10T09:15:31.303Z,2.85
2018-05-10T09:16:33.799Z,2.53
2018-05-10T09:17:36.263Z,3.00
2018-05-10T09:18:38.752Z,2.72
2018-05-10T09:19:42.728Z,3.70
2018-05-10T09:20:45.468Z,3.22
2018-05-10T09:21:47.964Z,3.25
2018-05-10T09:22:50.428Z,2.92
2018-05-10T09:23:52.915Z,3.00
2018-05-10T09:24:55.380Z,2.47
2018-05-10T09:25:59.374Z,2.70
2018-05-10T09:27:02.636Z,2.70
2018-05-10T09:28:05.095Z,2.60
2018-05-10T09:29:07.580Z,1.90
2018-05-10T09:30:10.221Z,2.62
2018-05-10T09:31:12.874Z,1.85
2018-05-10T09:32:15.364Z,2.17
2018-05-10T09:33:17.827Z,1.83
2018-05-10T09:34:20.328Z,2.28
2018-05-10T09:35:23.141Z,2.30
2018-05-10T09:36:25.912Z,2.17
2018-05-10T09:37:28.408Z,2.55
2018-05-10T09:38:30.872Z,2.05
2018-05-10T09:39:33.365Z,2.33
2018-05-10T09:40:36.900Z,2.53
2018-05-10T09:41:39.399Z,2.37
2018-05-10T09:42:41.863Z,2.83
2018-05-10T09:43:44.328Z,2.72
2018-05-10T09:44:46.885Z,2.85
2018-05-10T09:45:50.240Z,2.33
2018-05-10T09:46:52.719Z,2.45
2018-05-10T09:47:55.188Z,2.40
2018-05-10T09:48:57.683Z,3.40
2018-05-10T09:50:00.168Z,2.28
2018-05-10T09:51:03.697Z,2.87
2018-05-10T09:52:06.176Z,2.60
2018-05-10T09:53:08.647Z,3.72
2018-05-10T09:54:11.117Z,3.00
2018-05-10T09:55:13.901Z,3.05
2018-05-10T09:56:17.443Z,3.30
2018-05-10T09:57:19.944Z,3.05
2018-05-10T09:58:22.408Z,3.03
2018-05-10T09:59:24.876Z,2.60
2018-05-10T10:00:29.497Z,2.40
2018-05-10T10:01:32.751Z,2.45
2018-05-10T10:02:35.212Z,2.75
2018-05-10T10:03:37.680Z,2.55
2018-05-10T10:04:40.152Z,2.40
2018-05-10T10:05:42.940Z,2.58
2018-05-10T10:06:46.196Z,2.45
2018-05-10T10:07:48.664Z,2.00
2018-05-10T10:08:51.129Z,2.50
2018-05-10T10:09:53.588Z,2.03
2018-05-10T10:10:56.370Z,2.12
2018-05-10T10:11:58.847Z,2.20
2018-05-10T10:13:01.308Z,2.33
2018-05-10T10:14:03.780Z,2.10
2018-05-10T10:15:06.614Z,2.12
2018-05-10T10:16:09.430Z,1.80
2018-05-10T10:17:12.688Z,1.90
2018-05-10T10:18:15.206Z,2.35
2018-05-10T10:19:18.440Z,2.10
2018-05-10T10:20:21.847Z,2.12
2018-05-10T10:21:24.673Z,2.03
2018-05-10T10:22:27.176Z,1.73
2018-05-10T10:23:29.644Z,2.30
2018-05-10T10:24:32.108Z,2.17
2018-05-10T10:25:35.452Z,1.87
2018-05-10T10:26:37.972Z,1.90
2018-05-10T10:27:40.436Z,1.95
2018-05-10T10:28:42.899Z,2.53
2018-05-10T10:29:45.367Z,2.25
2018-05-10T10:30:48.694Z,2.45
2018-05-10T10:31:51.192Z,2.03
2018-05-10T10:32:53.660Z,2.17
2018-05-10T10:33:56.124Z,2.12
2018-05-10T10:34:58.590Z,2.75
2018-05-10T10:36:01.428Z,2.90
2018-05-10T10:37:03.948Z,2.30
2018-05-10T10:38:07.201Z,2.50
2018-05-10T10:39:09.656Z,2.40
2018-05-10T10:40:12.434Z,2.60
2018-05-10T10:41:15.999Z,3.03
2018-05-10T10:42:18.532Z,2.90
2018-05-10T10:43:21.768Z,2.95
2018-05-10T10:44:24.227Z,2.50
2018-05-10T10:45:26.989Z,2.40
2018-05-10T10:46:29.856Z,2.80
2018-05-10T10:47:32.388Z,2.50
2018-05-10T10:48:34.856Z,2.87
2018-05-10T10:49:37.319Z,2.92
2018-05-10T10:50:40.839Z,3.30
2018-05-10T10:51:43.332Z,3.62
2018-05-10T10:52:45.885Z,3.78
2018-05-10T10:53:48.351Z,4.12
2018-05-10T10:54:50.814Z,3.37
2018-05-10T10:55:53.620Z,3.20
2018-05-10T10:56:56.896Z,3.78
2018-05-10T10:57:59.384Z,3.92
2018-05-10T10:59:02.616Z,3.47
2018-05-10T11:00:05.416Z,3.85
2018-05-10T11:01:08.132Z,4.62
2018-05-10T11:02:10.625Z,4.03
2018-05-10T11:03:13.130Z,5.75
2018-05-10T11:04:16.360Z,5.32
2018-05-10T11:05:19.131Z,4.90
2018-05-10T11:06:21.836Z,5.35
2018-05-10T11:07:24.300Z,6.00
2018-05-10T11:08:26.942Z,6.07
2018-05-10T11:09:29.413Z,6.00
2018-05-10T11:10:32.190Z,6.00
2018-05-10T11:11:34.672Z,5.35
2018-05-10T11:12:37.135Z,5.62
2018-05-10T11:13:39.628Z,5.43
2018-05-10T11:14:42.087Z,5.18
2018-05-10T11:15:45.612Z,5.25
2018-05-10T11:16:48.112Z,5.50
2018-05-10T11:17:50.575Z,4.75
2018-05-10T11:18:53.064Z,5.07
2018-05-10T11:19:57.040Z,5.55
2018-05-10T11:20:59.701Z,5.90
2018-05-10T11:22:02.184Z,5.25
2018-05-10T11:23:04.651Z,5.20
2018-05-10T11:24:07.144Z,4.95
2018-05-10T11:25:10.964Z,5.32
2018-05-10T11:26:13.751Z,4.85
2018-05-10T11:27:16.249Z,5.22
2018-05-10T11:28:18.712Z,6.18
2018-05-10T11:29:21.204Z,6.12
2018-05-10T11:30:24.822Z,6.80
2018-05-10T11:31:27.592Z,6.75
2018-05-10T11:32:30.061Z,7.07
2018-05-10T11:33:32.528Z,7.97
2018-05-10T11:34:35.012Z,7.60
2018-05-10T11:35:37.647Z,7.60
2018-05-10T11:36:40.136Z,8.88
2018-05-10T11:37:42.604Z,8.55
2018-05-10T11:38:45.072Z,7.50
2018-05-10T11:39:47.571Z,7.60
2018-05-10T11:40:50.303Z,8.73
2018-05-10T11:41:52.792Z,8.02
2018-05-10T11:42:55.259Z,8.38
2018-05-10T11:43:57.780Z,8.00
2018-05-10T11:45:00.264Z,8.68
2018-05-10T11:46:03.014Z,8.27
2018-05-10T11:47:05.504Z,7.70
2018-05-10T11:48:07.971Z,8.57
2018-05-10T11:49:10.436Z,8.52
2018-05-10T11:50:13.279Z,8.30
2018-05-10T11:51:16.113Z,8.27
2018-05-10T11:52:19.367Z,8.55
2018-05-10T11:53:21.836Z,8.30
2018-05-10T11:54:24.304Z,10.15
2018-05-10T11:55:27.034Z,9.10
2018-05-10T11:56:29.568Z,9.05
2018-05-10T11:57:32.804Z,9.18
2018-05-10T11:58:35.273Z,10.38
2018-05-10T11:59:37.779Z,10.43
2018-05-10T12:00:41.573Z,11.15
2018-05-10T12:01:44.820Z,9.38
2018-05-10T12:02:47.288Z,10.73
2018-05-10T12:03:49.758Z,10.00
2018-05-10T12:04:52.220Z,9.00
2018-05-10T12:05:54.996Z,10.18
2018-05-10T12:06:57.476Z,9.38
2018-05-10T12:08:00.715Z,9.55
2018-05-10T12:09:03.180Z,9.48
2018-05-10T12:10:05.936Z,9.57
2018-05-10T12:11:08.708Z,9.65
2018-05-10T12:12:11.204Z,9.43
2018-05-10T12:13:13.673Z,9.90
2018-05-10T12:14:16.140Z,9.55
2018-05-10T12:15:18.974Z,9.85
2018-05-10T12:16:21.745Z,9.35
2018-05-10T12:17:24.246Z,10.10
2018-05-10T12:18:26.775Z,8.52
2018-05-10T12:19:29.255Z,8.95
2018-05-10T12:20:32.100Z,10.15
2018-05-10T12:21:34.620Z,9.45
2018-05-10T12:22:37.132Z,9.45
2018-05-10T12:23:40.363Z,10.38
2018-05-10T12:24:42.832Z,9.75
2018-05-10T12:25:45.562Z,10.57
2018-05-10T12:26:48.088Z,10.02
2018-05-10T12:27:51.327Z,10.25
2018-05-10T12:28:53.795Z,10.65
2018-05-10T12:29:56.264Z,10.75
2018-05-10T12:30:59.013Z,10.68
2018-05-10T12:32:01.576Z,10.50
2018-05-10T12:33:04.040Z,9.75
2018-05-10T12:34:06.512Z,9.63
2018-05-10T12:35:10.029Z,10.15
2018-05-10T12:36:12.820Z,9.85
2018-05-10T12:37:16.100Z,10.90
2018-05-10T12:38:18.568Z,9.68
2018-05-10T12:39:21.036Z,10.40
2018-05-10T12:40:23.852Z,10.55
2018-05-10T12:41:26.620Z,11.10
2018-05-10T12:42:29.156Z,9.88
2018-05-10T12:43:32.392Z,9.30
2018-05-10T12:44:34.860Z,10.68
2018-05-10T12:45:38.525Z,10.07
2018-05-10T12:46:41.016Z,9.32
2018-05-10T12:47:43.524Z,9.32
2018-05-10T12:48:46.837Z,10.75
2018-05-10T12:49:49.236Z,10.27
2018-05-10T12:50:51.878Z,10.80
2018-05-10T12:51:54.371Z,10.90
2018-05-10T12:52:56.887Z,10.70
2018-05-10T12:53:59.361Z,10.32
2018-05-10T12:55:01.932Z,10.70
2018-05-10T12:56:05.715Z,11.50
2018-05-10T12:57:08.928Z,10.57
2018-05-10T12:58:11.443Z,12.07
2018-05-10T12:59:14.679Z,17.87
2018-05-10T13:00:17.428Z,10.77
2018-05-10T13:01:21.139Z,13.02
2018-05-10T13:02:23.624Z,12.73
2018-05-10T13:03:26.131Z,12.07
2018-05-10T13:04:29.367Z,10.70
2018-05-10T13:05:32.103Z,11.38
2018-05-10T13:06:34.604Z,11.82
2018-05-10T13:07:37.072Z,13.73
2018-05-10T13:08:39.572Z,12.50
2018-05-10T13:09:42.807Z,11.43
2018-05-10T13:10:45.653Z,10.95
2018-05-10T13:11:48.156Z,11.25
2018-05-10T13:12:50.628Z,10.15
2018-05-10T13:13:53.129Z,12.43
2018-05-10T13:14:56.376Z,10.45
2018-05-10T13:15:59.129Z,10.93
2018-05-10T13:17:02.400Z,12.25
2018-05-10T13:18:04.871Z,11.95
2018-05-10T13:19:07.368Z,11.02
2018-05-10T13:20:10.186Z,12.85
2018-05-10T13:21:12.959Z,11.07
2018-05-10T13:22:15.464Z,10.40
2018-05-10T13:23:17.940Z,12.73
2018-05-10T13:24:20.423Z,11.88
2018-05-10T13:25:24.488Z,13.00
2018-05-10T13:26:27.951Z,12.25
2018-05-10T13:27:30.419Z,11.68
2018-05-10T13:28:32.887Z,11.98
2018-05-10T13:29:35.392Z,11.73
2018-05-10T13:30:38.105Z,12.20
2018-05-10T13:31:40.608Z,13.52
2018-05-10T13:32:43.081Z,12.82
2018-05-10T13:33:45.556Z,12.35
2018-05-10T13:34:48.048Z,13.13
2018-05-10T13:35:51.656Z,12.60
2018-05-10T13:36:54.202Z,12.40
2018-05-10T13:37:57.436Z,13.13
2018-05-10T13:38:59.907Z,11.20